sensor_id;sensor_type;location;lat;lon;timestamp;pressure;altitude;pressure_sealevel;temperature;humidity
12666;BME280;58531;59.050;17.416;2022-11-12T00:00:17;100728.72;;;12.95;93.03
12666;BME280;58531;59.050;17.416;2022-11-12T00:02:44;100723.78;;;12.85;93.46
12666;BME280;58531;59.050;17.416;2022-11-12T00:05:13;100705.47;;;12.74;93.91
12666;BME280;58531;59.050;17.416;2022-11-12T00:07:40;100704.28;;;12.75;93.50
12666;BME280;58531;59.050;17.416;2022-11-12T00:10:08;100696.81;;;12.70;93.93
12666;BME280;58531;59.050;17.416;2022-11-12T00:12:37;100690.28;;;12.62;94.34
12666;BME280;58531;59.050;17.416;2022-11-12T00:15:05;100703.38;;;12.60;94.32
12666;BME280;58531;59.050;17.416;2022-11-12T00:17:33;100713.63;;;12.53;94.71
12666;BME280;58531;59.050;17.416;2022-11-12T00:20:00;100715.88;;;12.45;95.26
12666;BME280;58531;59.050;17.416;2022-11-12T00:22:29;100715.88;;;12.45;95.08
12666;BME280;58531;59.050;17.416;2022-11-12T00:24:56;100710.81;;;12.38;95.76
12666;BME280;58531;59.050;17.416;2022-11-12T00:27:23;100706.31;;;12.35;95.91
12666;BME280;58531;59.050;17.416;2022-11-12T00:29:50;100708.97;;;12.26;96.19
12666;BME280;58531;59.050;17.416;2022-11-12T00:32:17;100714.00;;;12.15;96.48
12666;BME280;58531;59.050;17.416;2022-11-12T00:34:45;100709.53;;;12.12;96.70
12666;BME280;58531;59.050;17.416;2022-11-12T00:37:12;100713.97;;;12.06;97.43
12666;BME280;58531;59.050;17.416;2022-11-12T00:39:42;100718.44;;;12.09;96.86
12666;BME280;58531;59.050;17.416;2022-11-12T00:42:09;100716.44;;;12.31;95.90
12666;BME280;58531;59.050;17.416;2022-11-12T00:44:36;100710.91;;;12.26;95.63
12666;BME280;58531;59.050;17.416;2022-11-12T00:47:03;100714.50;;;12.23;95.21
12666;BME280;58531;59.050;17.416;2022-11-12T00:49:30;100711.94;;;12.19;96.00
12666;BME280;58531;59.050;17.416;2022-11-12T00:51:57;100691.84;;;12.15;95.87
12666;BME280;58531;59.050;17.416;2022-11-12T00:54:24;100692.88;;;12.17;95.50
12666;BME280;58531;59.050;17.416;2022-11-12T00:56:52;100691.13;;;12.23;95.71
12666;BME280;58531;59.050;17.416;2022-11-12T00:59:19;100707.19;;;12.23;95.31
12666;BME280;58531;59.050;17.416;2022-11-12T01:01:46;100707.78;;;12.27;94.76
12666;BME280;58531;59.050;17.416;2022-11-12T01:04:14;100705.09;;;12.18;95.41
12666;BME280;58531;59.050;17.416;2022-11-12T01:06:41;100689.31;;;12.11;96.27
12666;BME280;58531;59.050;17.416;2022-11-12T01:09:08;100713.13;;;12.18;95.71
12666;BME280;58531;59.050;17.416;2022-11-12T01:11:36;100711.47;;;12.12;96.30
12666;BME280;58531;59.050;17.416;2022-11-12T01:14:07;100718.19;;;12.16;95.81
12666;BME280;58531;59.050;17.416;2022-11-12T01:16:37;100726.78;;;12.11;96.16
12666;BME280;58531;59.050;17.416;2022-11-12T01:19:07;100719.38;;;12.24;95.70
12666;BME280;58531;59.050;17.416;2022-11-12T01:21:38;100711.34;;;12.24;95.51
12666;BME280;58531;59.050;17.416;2022-11-12T01:24:06;100710.75;;;12.20;95.96
12666;BME280;58531;59.050;17.416;2022-11-12T01:26:33;100719.38;;;12.24;95.85
12666;BME280;58531;59.050;17.416;2022-11-12T01:29:00;100740.66;;;12.28;95.96
12666;BME280;58531;59.050;17.416;2022-11-12T01:31:31;100755.72;;;12.34;96.43
12666;BME280;58531;59.050;17.416;2022-11-12T01:34:00;100762.44;;;12.48;95.19
12666;BME280;58531;59.050;17.416;2022-11-12T01:36:31;100768.13;;;12.59;94.72
12666;BME280;58531;59.050;17.416;2022-11-12T01:38:59;100762.63;;;12.71;93.96
12666;BME280;58531;59.050;17.416;2022-11-12T01:41:28;100755.66;;;12.74;94.07
12666;BME280;58531;59.050;17.416;2022-11-12T01:44:09;100755.50;;;12.77;93.87
12666;BME280;58531;59.050;17.416;2022-11-12T01:46:46;100758.31;;;12.83;93.79
12666;BME280;58531;59.050;17.416;2022-11-12T01:49:22;100746.31;;;12.96;93.36
12666;BME280;58531;59.050;17.416;2022-11-12T01:51:54;100754.94;;;13.00;92.81
12666;BME280;58531;59.050;17.416;2022-11-12T01:54:23;100758.19;;;13.04;93.12
12666;BME280;58531;59.050;17.416;2022-11-12T01:56:50;100773.09;;;13.05;93.25
12666;BME280;58531;59.050;17.416;2022-11-12T01:59:22;100776.53;;;13.05;93.39
12666;BME280;58531;59.050;17.416;2022-11-12T02:01:52;100780.13;;;13.11;93.22
12666;BME280;58531;59.050;17.416;2022-11-12T02:04:20;100778.47;;;13.14;92.93
12666;BME280;58531;59.050;17.416;2022-11-12T02:06:49;100794.25;;;13.12;93.16
12666;BME280;58531;59.050;17.416;2022-11-12T02:09:17;100788.75;;;13.15;93.34
12666;BME280;58531;59.050;17.416;2022-11-12T02:11:44;100781.59;;;13.21;93.02
12666;BME280;58531;59.050;17.416;2022-11-12T02:14:11;100785.16;;;13.27;92.42
12666;BME280;58531;59.050;17.416;2022-11-12T02:16:39;100784.72;;;13.29;92.69
12666;BME280;58531;59.050;17.416;2022-11-12T02:19:10;100796.78;;;13.33;92.74
12666;BME280;58531;59.050;17.416;2022-11-12T02:21:39;100794.56;;;13.32;93.29
12666;BME280;58531;59.050;17.416;2022-11-12T02:24:29;100805.88;;;13.27;93.65
12666;BME280;58531;59.050;17.416;2022-11-12T02:26:57;100801.53;;;13.29;93.95
12666;BME280;58531;59.050;17.416;2022-11-12T02:29:24;100793.94;;;13.37;93.57
12666;BME280;58531;59.050;17.416;2022-11-12T02:31:53;100799.03;;;13.35;93.98
12666;BME280;58531;59.050;17.416;2022-11-12T02:34:20;100790.97;;;13.44;93.51
12666;BME280;58531;59.050;17.416;2022-11-12T02:36:50;100791.88;;;13.41;93.83
12666;BME280;58531;59.050;17.416;2022-11-12T02:39:18;100794.09;;;13.42;94.11
12666;BME280;58531;59.050;17.416;2022-11-12T02:41:45;100781.13;;;13.41;94.73
12666;BME280;58531;59.050;17.416;2022-11-12T02:44:12;100802.91;;;13.43;94.74
12666;BME280;58531;59.050;17.416;2022-11-12T02:46:39;100801.09;;;13.49;94.56
12666;BME280;58531;59.050;17.416;2022-11-12T02:49:06;100804.22;;;13.47;94.69
12666;BME280;58531;59.050;17.416;2022-11-12T02:51:36;100803.63;;;13.52;94.48
12666;BME280;58531;59.050;17.416;2022-11-12T02:54:05;100801.41;;;13.51;95.07
12666;BME280;58531;59.050;17.416;2022-11-12T02:56:33;100788.09;;;13.56;94.67
12666;BME280;58531;59.050;17.416;2022-11-12T02:59:00;100788.09;;;13.56;95.10
12666;BME280;58531;59.050;17.416;2022-11-12T03:01:27;100794.22;;;13.57;95.28
12666;BME280;58531;59.050;17.416;2022-11-12T03:03:54;100808.22;;;13.52;95.91
12666;BME280;58531;59.050;17.416;2022-11-12T03:06:21;100810.47;;;13.53;95.78
12666;BME280;58531;59.050;17.416;2022-11-12T03:08:48;100822.53;;;13.58;95.93
12666;BME280;58531;59.050;17.416;2022-11-12T03:11:16;100834.16;;;13.55;96.23
12666;BME280;58531;59.050;17.416;2022-11-12T03:13:44;100832.66;;;13.54;96.28
12666;BME280;58531;59.050;17.416;2022-11-12T03:16:11;100833.84;;;13.62;95.98
12666;BME280;58531;59.050;17.416;2022-11-12T03:18:38;100835.66;;;13.65;95.90
12666;BME280;58531;59.050;17.416;2022-11-12T03:21:05;100832.06;;;13.68;95.45
12666;BME280;58531;59.050;17.416;2022-11-12T03:23:32;100837.91;;;13.66;95.52
12666;BME280;58531;59.050;17.416;2022-11-12T03:26:01;100860.41;;;13.69;95.89
12666;BME280;58531;59.050;17.416;2022-11-12T03:28:31;100851.63;;;13.68;95.91
12666;BME280;58531;59.050;17.416;2022-11-12T03:30:59;100843.69;;;13.65;96.27
12666;BME280;58531;59.050;17.416;2022-11-12T03:33:26;100842.81;;;13.68;96.03
12666;BME280;58531;59.050;17.416;2022-11-12T03:35:53;100844.59;;;13.71;96.27
12666;BME280;58531;59.050;17.416;2022-11-12T03:38:20;100853.22;;;13.75;95.71
12666;BME280;58531;59.050;17.416;2022-11-12T03:40:48;100842.97;;;13.73;96.24
12666;BME280;58531;59.050;17.416;2022-11-12T03:43:15;100832.22;;;13.73;95.71
12666;BME280;58531;59.050;17.416;2022-11-12T03:45:43;100852.94;;;13.73;95.66
12666;BME280;58531;59.050;17.416;2022-11-12T03:48:10;100864.28;;;13.68;96.31
12666;BME280;58531;59.050;17.416;2022-11-12T03:50:37;100880.38;;;13.68;96.25
12666;BME280;58531;59.050;17.416;2022-11-12T03:53:04;100871.44;;;13.71;96.13
12666;BME280;58531;59.050;17.416;2022-11-12T03:55:31;100884.41;;;13.72;95.93
12666;BME280;58531;59.050;17.416;2022-11-12T03:57:58;100885.63;;;13.71;95.97
12666;BME280;58531;59.050;17.416;2022-11-12T04:00:27;100889.63;;;13.67;96.42
12666;BME280;58531;59.050;17.416;2022-11-12T04:02:57;100885.31;;;13.69;96.16
12666;BME280;58531;59.050;17.416;2022-11-12T04:05:25;100882.47;;;13.73;95.64
12666;BME280;58531;59.050;17.416;2022-11-12T04:08:12;100894.38;;;13.81;95.02
12666;BME280;58531;59.050;17.416;2022-11-12T04:11:20;100892.59;;;13.78;95.69
12666;BME280;58531;59.050;17.416;2022-11-12T04:13:50;100894.38;;;13.72;95.60
12666;BME280;58531;59.050;17.416;2022-11-12T04:16:49;100894.84;;;13.70;95.52
12666;BME280;58531;59.050;17.416;2022-11-12T04:19:47;100909.31;;;13.64;96.25
12666;BME280;58531;59.050;17.416;2022-11-12T04:23:03;100928.69;;;13.77;94.67
12666;BME280;58531;59.050;17.416;2022-11-12T04:25:56;100914.38;;;13.80;94.63
12666;BME280;58531;59.050;17.416;2022-11-12T04:39:05;100933.16;;;13.71;94.77
12666;BME280;58531;59.050;17.416;2022-11-12T04:49:11;100935.41;;;13.54;94.73
12666;BME280;58531;59.050;17.416;2022-11-12T04:55:19;100945.06;;;13.25;96.86
12666;BME280;58531;59.050;17.416;2022-11-12T04:57:47;100959.03;;;13.11;97.51
12666;BME280;58531;59.050;17.416;2022-11-12T05:00:24;100964.22;;;13.05;98.22
12666;BME280;58531;59.050;17.416;2022-11-12T05:03:01;100981.16;;;12.94;98.67
12666;BME280;58531;59.050;17.416;2022-11-12T05:05:35;100987.22;;;12.85;98.61
12666;BME280;58531;59.050;17.416;2022-11-12T05:08:09;100978.50;;;12.72;100.00
12666;BME280;58531;59.050;17.416;2022-11-12T05:17:34;101002.22;;;12.52;100.00
12666;BME280;58531;59.050;17.416;2022-11-12T05:23:39;100998.19;;;12.48;100.00
12666;BME280;58531;59.050;17.416;2022-11-12T05:45:19;101055.28;;;12.23;100.00
12666;BME280;58531;59.050;17.416;2022-11-12T05:47:47;101066.94;;;12.08;100.00
12666;BME280;58531;59.050;17.416;2022-11-12T05:50:15;101073.09;;;12.17;100.00
12666;BME280;58531;59.050;17.416;2022-11-12T05:52:44;101074.91;;;12.20;100.00
12666;BME280;58531;59.050;17.416;2022-11-12T05:55:14;101083.81;;;12.17;100.00
12666;BME280;58531;59.050;17.416;2022-11-12T06:04:52;101098.78;;;12.27;100.00
12666;BME280;58531;59.050;17.416;2022-11-12T06:07:57;101104.38;;;12.20;100.00
12666;BME280;58531;59.050;17.416;2022-11-12T06:15:18;101116.94;;;11.98;100.00
12666;BME280;58531;59.050;17.416;2022-11-12T06:19:00;101127.09;;;12.03;100.00
12666;BME280;58531;59.050;17.416;2022-11-12T06:21:19;101140.44;;;11.94;100.00
12666;BME280;58531;59.050;17.416;2022-11-12T06:24:43;101160.72;;;12.04;100.00
12666;BME280;58531;59.050;17.416;2022-11-12T06:27:24;101157.28;;;12.16;100.00
12666;BME280;58531;59.050;17.416;2022-11-12T06:29:53;101157.00;;;12.02;100.00
12666;BME280;58531;59.050;17.416;2022-11-12T06:32:24;101168.34;;;12.06;100.00
12666;BME280;58531;59.050;17.416;2022-11-12T06:34:54;101172.63;;;12.03;100.00
12666;BME280;58531;59.050;17.416;2022-11-12T06:37:39;101169.41;;;11.96;100.00
12666;BME280;58531;59.050;17.416;2022-11-12T06:40:19;101173.16;;;11.98;100.00
12666;BME280;58531;59.050;17.416;2022-11-12T06:45:31;101182.50;;;11.81;100.00
12666;BME280;58531;59.050;17.416;2022-11-12T06:51:36;101187.53;;;11.79;100.00
12666;BME280;58531;59.050;17.416;2022-11-12T06:58:25;101210.44;;;11.93;100.00
12666;BME280;58531;59.050;17.416;2022-11-12T07:00:54;101226.59;;;12.02;100.00
12666;BME280;58531;59.050;17.416;2022-11-12T07:03:25;101230.00;;;12.02;100.00
12666;BME280;58531;59.050;17.416;2022-11-12T07:06:03;101241.50;;;11.90;100.00
12666;BME280;58531;59.050;17.416;2022-11-12T07:08:36;101238.38;;;11.79;100.00
12666;BME280;58531;59.050;17.416;2022-11-12T07:11:10;101241.78;;;11.68;100.00
12666;BME280;58531;59.050;17.416;2022-11-12T07:20:40;101261.38;;;11.77;100.00
12666;BME280;58531;59.050;17.416;2022-11-12T07:23:28;101268.66;;;11.77;100.00
12666;BME280;58531;59.050;17.416;2022-11-12T07:26:04;101279.56;;;11.82;100.00
12666;BME280;58531;59.050;17.416;2022-11-12T07:28:33;101268.88;;;11.82;100.00
12666;BME280;58531;59.050;17.416;2022-11-12T07:31:06;101279.81;;;11.87;100.00
12666;BME280;58531;59.050;17.416;2022-11-12T07:34:03;101280.66;;;11.84;100.00
12666;BME280;58531;59.050;17.416;2022-11-12T07:37:18;101290.72;;;11.80;100.00
12666;BME280;58531;59.050;17.416;2022-11-12T07:43:56;101306.38;;;11.94;100.00
12666;BME280;58531;59.050;17.416;2022-11-12T07:46:29;101323.81;;;11.99;100.00
12666;BME280;58531;59.050;17.416;2022-11-12T07:49:02;101333.69;;;12.02;100.00
12666;BME280;58531;59.050;17.416;2022-11-12T07:51:31;101334.34;;;12.06;100.00
12666;BME280;58531;59.050;17.416;2022-11-12T07:54:00;101338.28;;;12.01;100.00
12666;BME280;58531;59.050;17.416;2022-11-12T07:56:31;101349.84;;;11.98;100.00
12666;BME280;58531;59.050;17.416;2022-11-12T07:59:00;101361.19;;;12.02;100.00
12666;BME280;58531;59.050;17.416;2022-11-12T08:01:37;101364.84;;;12.08;100.00
12666;BME280;58531;59.050;17.416;2022-11-12T08:04:38;101378.56;;;12.10;100.00
12666;BME280;58531;59.050;17.416;2022-11-12T08:07:09;101369.59;;;12.29;100.00
12666;BME280;58531;59.050;17.416;2022-11-12T08:09:46;101380.50;;;12.22;100.00
12666;BME280;58531;59.050;17.416;2022-11-12T08:12:28;101376.00;;;12.19;100.00
12666;BME280;58531;59.050;17.416;2022-11-12T08:14:56;101401.66;;;12.45;100.00
12666;BME280;58531;59.050;17.416;2022-11-12T08:18:01;101410.63;;;12.51;100.00
12666;BME280;58531;59.050;17.416;2022-11-12T08:21:06;101414.19;;;12.48;100.00
12666;BME280;58531;59.050;17.416;2022-11-12T08:23:50;101419.09;;;12.50;100.00
12666;BME280;58531;59.050;17.416;2022-11-12T08:26:24;101422.44;;;12.66;100.00
12666;BME280;58531;59.050;17.416;2022-11-12T08:29:13;101424.69;;;12.55;100.00
12666;BME280;58531;59.050;17.416;2022-11-12T08:32:16;101439.03;;;12.61;100.00
12666;BME280;58531;59.050;17.416;2022-11-12T08:35:13;101438.31;;;12.61;100.00
12666;BME280;58531;59.050;17.416;2022-11-12T08:38:05;101437.13;;;12.74;99.71
12666;BME280;58531;59.050;17.416;2022-11-12T08:41:14;101440.97;;;12.73;99.29
12666;BME280;58531;59.050;17.416;2022-11-12T08:43:55;101446.03;;;12.71;99.28
12666;BME280;58531;59.050;17.416;2022-11-12T08:46:28;101449.47;;;12.84;98.38
12666;BME280;58531;59.050;17.416;2022-11-12T08:52:33;101465.69;;;12.93;97.62
12666;BME280;58531;59.050;17.416;2022-11-12T09:05:32;101494.06;;;13.28;94.63
12666;BME280;58531;59.050;17.416;2022-11-12T09:11:06;101519.59;;;13.32;93.61
12666;BME280;58531;59.050;17.416;2022-11-12T09:13:39;101527.22;;;13.34;93.41
12666;BME280;58531;59.050;17.416;2022-11-12T09:19:50;101534.22;;;13.44;92.73
12666;BME280;58531;59.050;17.416;2022-11-12T09:22:49;101542.03;;;13.51;91.77
12666;BME280;58531;59.050;17.416;2022-11-12T09:38:31;101566.81;;;13.55;91.41
12666;BME280;58531;59.050;17.416;2022-11-12T09:50:22;101583.88;;;13.61;91.23
12666;BME280;58531;59.050;17.416;2022-11-12T09:53:07;101592.16;;;13.66;91.22
12666;BME280;58531;59.050;17.416;2022-11-12T09:56:05;101599.22;;;13.73;90.20
12666;BME280;58531;59.050;17.416;2022-11-12T09:58:56;101607.69;;;13.59;91.10
12666;BME280;58531;59.050;17.416;2022-11-12T10:02:02;101612.13;;;13.65;90.47
12666;BME280;58531;59.050;17.416;2022-11-12T10:05:01;101618.53;;;13.68;91.05
12666;BME280;58531;59.050;17.416;2022-11-12T10:07:41;101618.78;;;13.73;89.93
12666;BME280;58531;59.050;17.416;2022-11-12T10:10:23;101622.28;;;13.83;89.03
12666;BME280;58531;59.050;17.416;2022-11-12T10:13:08;101626.25;;;13.91;87.62
12666;BME280;58531;59.050;17.416;2022-11-12T10:16:05;101633.31;;;13.97;86.99
12666;BME280;58531;59.050;17.416;2022-11-12T10:19:24;101637.31;;;13.93;87.88
12666;BME280;58531;59.050;17.416;2022-11-12T10:22:23;101635.59;;;13.99;87.03
12666;BME280;58531;59.050;17.416;2022-11-12T10:28:58;101646.34;;;13.99;86.72
12666;BME280;58531;59.050;17.416;2022-11-12T10:31:33;101654.06;;;13.97;87.16
12666;BME280;58531;59.050;17.416;2022-11-12T10:34:25;101665.75;;;14.03;85.97
12666;BME280;58531;59.050;17.416;2022-11-12T10:37:11;101672.75;;;14.00;86.51
12666;BME280;58531;59.050;17.416;2022-11-12T10:39:44;101679.63;;;14.01;86.51
12666;BME280;58531;59.050;17.416;2022-11-12T10:42:19;101677.81;;;13.98;86.46
12666;BME280;58531;59.050;17.416;2022-11-12T10:50:57;101697.25;;;14.02;86.96
12666;BME280;58531;59.050;17.416;2022-11-12T10:53:34;101691.44;;;14.04;86.01
12666;BME280;58531;59.050;17.416;2022-11-12T10:56:30;101688.44;;;14.02;85.56
12666;BME280;58531;59.050;17.416;2022-11-12T10:59:33;101704.31;;;14.09;85.32
12666;BME280;58531;59.050;17.416;2022-11-12T11:02:23;101700.44;;;14.10;84.90
12666;BME280;58531;59.050;17.416;2022-11-12T11:05:35;101709.69;;;14.09;84.02
12666;BME280;58531;59.050;17.416;2022-11-12T11:08:35;101717.34;;;14.10;84.34
12666;BME280;58531;59.050;17.416;2022-11-12T11:14:51;101733.88;;;14.09;83.90
12666;BME280;58531;59.050;17.416;2022-11-12T11:17:48;101739.81;;;14.16;82.53
12666;BME280;58531;59.050;17.416;2022-11-12T11:20:23;101744.66;;;14.21;81.90
12666;BME280;58531;59.050;17.416;2022-11-12T11:23:19;101742.72;;;14.21;81.64
12666;BME280;58531;59.050;17.416;2022-11-12T11:26:12;101750.78;;;14.21;81.21
12666;BME280;58531;59.050;17.416;2022-11-12T11:29:03;101752.41;;;14.19;80.90
12666;BME280;58531;59.050;17.416;2022-11-12T11:32:00;101757.88;;;14.16;81.98
12666;BME280;58531;59.050;17.416;2022-11-12T11:35:35;101765.69;;;14.10;81.56
12666;BME280;58531;59.050;17.416;2022-11-12T11:37:51;101764.28;;;14.06;81.86
12666;BME280;58531;59.050;17.416;2022-11-12T11:41:17;101761.38;;;14.13;80.50
12666;BME280;58531;59.050;17.416;2022-11-12T11:43:53;101764.53;;;14.23;80.89
12666;BME280;58531;59.050;17.416;2022-11-12T11:46:37;101762.25;;;14.34;79.53
12666;BME280;58531;59.050;17.416;2022-11-12T11:49:34;101761.50;;;14.46;78.91
12666;BME280;58531;59.050;17.416;2022-11-12T11:52:18;101769.41;;;14.62;79.20
12666;BME280;58531;59.050;17.416;2022-11-12T11:58:39;101762.69;;;14.79;77.87
12666;BME280;58531;59.050;17.416;2022-11-12T12:01:26;101765.94;;;14.74;77.96
12666;BME280;58531;59.050;17.416;2022-11-12T12:07:56;101761.66;;;14.64;78.95
12666;BME280;58531;59.050;17.416;2022-11-12T12:10:34;101763.28;;;14.62;78.78
12666;BME280;58531;59.050;17.416;2022-11-12T12:13:15;101767.56;;;14.59;78.92
12666;BME280;58531;59.050;17.416;2022-11-12T12:29:00;101776.84;;;14.46;78.55
12666;BME280;58531;59.050;17.416;2022-11-12T12:31:44;101784.56;;;14.56;78.71
12666;BME280;58531;59.050;17.416;2022-11-12T12:34:25;101783.38;;;14.57;78.60
12666;BME280;58531;59.050;17.416;2022-11-12T12:37:21;101785.53;;;14.62;77.33
12666;BME280;58531;59.050;17.416;2022-11-12T12:40:17;101795.66;;;14.58;77.67
12666;BME280;58531;59.050;17.416;2022-11-12T12:43:05;101797.41;;;14.52;77.57
12666;BME280;58531;59.050;17.416;2022-11-12T12:45:45;101797.09;;;14.50;76.85
12666;BME280;58531;59.050;17.416;2022-11-12T12:54:56;101811.50;;;14.31;77.34
12666;BME280;58531;59.050;17.416;2022-11-12T12:57:36;101811.84;;;14.21;77.20
12666;BME280;58531;59.050;17.416;2022-11-12T13:00:26;101816.97;;;14.16;77.72
12666;BME280;58531;59.050;17.416;2022-11-12T13:23:46;101838.03;;;13.64;79.56
12666;BME280;58531;59.050;17.416;2022-11-12T13:39:34;101864.72;;;13.26;79.86
12666;BME280;58531;59.050;17.416;2022-11-12T15:38:04;102028.69;;;9.10;100.00
12666;BME280;58531;59.050;17.416;2022-11-12T16:59:03;102057.16;;;7.15;100.00
12666;BME280;58531;59.050;17.416;2022-11-12T17:02:48;102076.13;;;7.07;100.00
12666;BME280;58531;59.050;17.416;2022-11-12T17:19:08;102093.88;;;6.89;100.00
12666;BME280;58531;59.050;17.416;2022-11-12T17:19:53;102101.84;;;6.89;100.00
12666;BME280;58531;59.050;17.416;2022-11-12T17:23:29;102099.56;;;6.88;100.00
12666;BME280;58531;59.050;17.416;2022-11-12T18:18:19;102186.16;;;5.98;100.00
12666;BME280;58531;59.050;17.416;2022-11-12T18:24:47;102191.69;;;5.83;100.00
12666;BME280;58531;59.050;17.416;2022-11-12T18:38:09;102210.25;;;5.54;100.00
12666;BME280;58531;59.050;17.416;2022-11-12T18:41:32;102211.00;;;5.54;100.00
12666;BME280;58531;59.050;17.416;2022-11-12T18:44:32;102212.84;;;5.50;100.00
12666;BME280;58531;59.050;17.416;2022-11-12T18:47:19;102212.13;;;5.50;100.00
12666;BME280;58531;59.050;17.416;2022-11-12T19:15:02;102234.84;;;4.95;100.00
12666;BME280;58531;59.050;17.416;2022-11-12T19:17:44;102237.09;;;4.93;100.00
12666;BME280;58531;59.050;17.416;2022-11-12T19:20:29;102237.78;;;4.90;100.00
12666;BME280;58531;59.050;17.416;2022-11-12T19:26:41;102243.09;;;4.90;100.00
12666;BME280;58531;59.050;17.416;2022-11-12T19:29:22;102249.81;;;4.84;100.00
12666;BME280;58531;59.050;17.416;2022-11-12T19:32:02;102255.03;;;4.77;100.00
12666;BME280;58531;59.050;17.416;2022-11-12T20:38:10;102330.59;;;4.34;100.00
12666;BME280;58531;59.050;17.416;2022-11-12T20:40:55;102337.03;;;4.33;100.00
12666;BME280;58531;59.050;17.416;2022-11-12T20:43:58;102332.34;;;4.26;100.00
12666;BME280;58531;59.050;17.416;2022-11-12T20:46:44;102339.41;;;4.19;100.00
12666;BME280;58531;59.050;17.416;2022-11-12T20:49:31;102341.91;;;4.12;100.00
12666;BME280;58531;59.050;17.416;2022-11-12T20:52:16;102339.19;;;4.08;100.00
12666;BME280;58531;59.050;17.416;2022-11-12T20:55:21;102338.06;;;4.09;100.00
12666;BME280;58531;59.050;17.416;2022-11-12T21:01:04;102332.41;;;4.07;100.00
12666;BME280;58531;59.050;17.416;2022-11-12T21:03:54;102342.19;;;4.07;100.00
12666;BME280;58531;59.050;17.416;2022-11-12T21:06:57;102335.31;;;4.02;100.00
12666;BME280;58531;59.050;17.416;2022-11-12T21:09:33;102335.22;;;3.99;100.00
12666;BME280;58531;59.050;17.416;2022-11-12T21:12:33;102334.75;;;3.93;100.00
12666;BME280;58531;59.050;17.416;2022-11-12T21:15:07;102335.88;;;3.92;100.00
12666;BME280;58531;59.050;17.416;2022-11-12T21:17:49;102336.63;;;3.93;100.00
12666;BME280;58531;59.050;17.416;2022-11-12T21:20:27;102341.16;;;3.92;100.00
12666;BME280;58531;59.050;17.416;2022-11-12T21:23:03;102341.47;;;3.91;100.00
12666;BME280;58531;59.050;17.416;2022-11-12T21:25:48;102338.84;;;3.91;100.00
12666;BME280;58531;59.050;17.416;2022-11-12T21:28:48;102338.56;;;3.96;100.00
12666;BME280;58531;59.050;17.416;2022-11-12T21:31:31;102339.81;;;4.02;100.00
12666;BME280;58531;59.050;17.416;2022-11-12T21:34:19;102339.91;;;4.05;100.00
12666;BME280;58531;59.050;17.416;2022-11-12T21:36:49;102334.69;;;4.09;100.00
12666;BME280;58531;59.050;17.416;2022-11-12T21:39:29;102341.50;;;4.10;100.00
12666;BME280;58531;59.050;17.416;2022-11-12T21:42:01;102338.44;;;4.08;100.00
12666;BME280;58531;59.050;17.416;2022-11-12T21:44:30;102344.84;;;4.07;100.00
12666;BME280;58531;59.050;17.416;2022-11-12T21:46:57;102343.31;;;4.06;100.00
12666;BME280;58531;59.050;17.416;2022-11-12T21:52:26;102338.44;;;4.08;100.00
12666;BME280;58531;59.050;17.416;2022-11-12T21:54:56;102338.44;;;4.08;100.00
12666;BME280;58531;59.050;17.416;2022-11-12T21:57:32;102339.91;;;4.05;100.00
12666;BME280;58531;59.050;17.416;2022-11-12T22:00:00;102341.22;;;4.15;100.00
12666;BME280;58531;59.050;17.416;2022-11-12T22:02:27;102343.44;;;4.13;100.00
12666;BME280;58531;59.050;17.416;2022-11-12T22:04:54;102346.72;;;4.06;100.00
12666;BME280;58531;59.050;17.416;2022-11-12T22:07:24;102349.66;;;4.01;100.00
12666;BME280;58531;59.050;17.416;2022-11-12T22:09:51;102345.81;;;3.99;100.00
12666;BME280;58531;59.050;17.416;2022-11-12T22:12:18;102348.72;;;3.94;100.00
12666;BME280;58531;59.050;17.416;2022-11-12T22:14:47;102349.00;;;3.89;100.00
12666;BME280;58531;59.050;17.416;2022-11-12T22:17:15;102356.38;;;3.80;100.00
12666;BME280;58531;59.050;17.416;2022-11-12T22:19:42;102347.25;;;3.77;100.00
12666;BME280;58531;59.050;17.416;2022-11-12T22:22:09;102357.81;;;3.77;100.00
12666;BME280;58531;59.050;17.416;2022-11-12T22:24:36;102359.03;;;3.80;100.00
12666;BME280;58531;59.050;17.416;2022-11-12T22:27:06;102359.50;;;3.85;100.00
12666;BME280;58531;59.050;17.416;2022-11-12T22:29:34;102367.50;;;3.89;100.00
12666;BME280;58531;59.050;17.416;2022-11-12T22:32:05;102369.38;;;3.88;100.00
12666;BME280;58531;59.050;17.416;2022-11-12T22:34:33;102372.34;;;3.87;100.00
12666;BME280;58531;59.050;17.416;2022-11-12T22:37:00;102373.78;;;3.81;100.00
12666;BME280;58531;59.050;17.416;2022-11-12T22:39:27;102368.25;;;3.70;100.00
12666;BME280;58531;59.050;17.416;2022-11-12T22:41:54;102360.03;;;3.56;100.00
12666;BME280;58531;59.050;17.416;2022-11-12T22:44:21;102357.56;;;3.48;100.00
12666;BME280;58531;59.050;17.416;2022-11-12T22:46:50;102359.03;;;3.46;100.00
12666;BME280;58531;59.050;17.416;2022-11-12T22:49:17;102358.59;;;3.44;100.00
12666;BME280;58531;59.050;17.416;2022-11-12T22:51:46;102356.66;;;3.41;100.00
12666;BME280;58531;59.050;17.416;2022-11-12T22:54:13;102367.97;;;3.41;100.00
12666;BME280;58531;59.050;17.416;2022-11-12T22:56:42;102366.84;;;3.42;100.00
12666;BME280;58531;59.050;17.416;2022-11-12T22:59:10;102372.56;;;3.44;100.00
12666;BME280;58531;59.050;17.416;2022-11-12T23:01:36;102367.97;;;3.41;100.00
12666;BME280;58531;59.050;17.416;2022-11-12T23:04:05;102364.06;;;3.35;100.00